Clear Lake, Iowa
Current Conditions -  °F | °C
As of 7:53 AM on Friday 31 Oct 2014 (Local Time) from KMCW Reporting Station
Clear Clear  
Wind Chill: 12°   Ceiling: Unl
Heat Index: 23°   Visibility: 10mi
Dew Point: 18°   Wind: 12mph
Humidity: 81%   Direction: 350°N
Pressure: 30.46"   Gusts: NA
Location:  43.13°N, 93.38°W
Report Text: KMCW 311253Z AUTO 35010KT 10SM CLR M05/M08 A3046 RMK AO2 SLP322 T10501078
Loading
Personal Weather Stations






























Interactive Weather Map
Tropical Storm Tracking
New forecast layout! Learn more

10-Day Weather Forecast

Advertisements
Track Severe Weather on mobile